Terminal Aerodrome Forecast
Issued by NWS Cleveland, OH

Home | Current Version | Previous Version | Graphics & Text | Print | Product List | Glossary On
Versions: 1 2 3 4 5 6 7 8 9 10 11 12 13 14 15 16 17 18
000
FTUS41 KCLE 211700
TAFCAK
TAF
KCAK 211736Z 2118/2218 00000KT P6SM BKN040
     FM220000 VRB03KT P6SM SKC
     FM220900 00000KT 4SM BR SKC
     FM221300 22006KT P6SM SCT040=

USA.gov is the U.S. government's official web portal to all federal, state and local government web resources and services.